Valle Hermoso, Argentina
Current Conditions -  °F | °C
As of 5:00 PM on Thursday 18 Dec 2014 (Local Time) from SACO Reporting Station
Few Clouds Few Clouds  
Wind Chill: 86°   Ceiling: Unl
Heat Index: 86°   Visibility: 6mi
Dew Point: 55°   Wind: 12mph
Humidity: 35%   Direction: 20°NNE
Pressure: 29.85"   Gusts: NA
Location:  31.12°S, 64.48°W
Report Text: SACO 182000Z 02010KT 9999 FEW030 30/13 Q1011
Loading
Personal Weather Stations






























Interactive Weather Map New forecast layout! Learn more

10-Day Weather Forecast

Advertisements
Track Severe Weather on mobile